createdAt,value
2019-03-31T00:00:42.377Z,0.00
2019-03-31T00:01:42.396Z,0.00
2019-03-31T00:02:42.418Z,0.00
2019-03-31T00:03:42.432Z,0.00
2019-03-31T00:04:42.456Z,0.00
2019-03-31T00:05:42.472Z,0.00
2019-03-31T00:06:42.490Z,0.00
2019-03-31T00:07:42.507Z,0.00
2019-03-31T00:08:42.528Z,0.00
2019-03-31T00:09:42.543Z,0.00
2019-03-31T00:10:42.561Z,0.00
2019-03-31T00:11:42.587Z,0.00
2019-03-31T00:12:42.600Z,0.00
2019-03-31T00:13:42.617Z,0.00
2019-03-31T00:14:42.635Z,0.00
2019-03-31T00:15:42.653Z,0.00
2019-03-31T00:16:42.673Z,0.00
2019-03-31T00:17:42.689Z,0.00
2019-03-31T00:18:42.709Z,0.00
2019-03-31T00:19:42.727Z,0.00
2019-03-31T00:20:42.745Z,0.00
2019-03-31T00:21:42.769Z,0.00
2019-03-31T00:22:42.781Z,0.00
2019-03-31T00:23:42.797Z,0.00
2019-03-31T00:24:42.815Z,0.00
2019-03-31T00:25:42.836Z,0.00
2019-03-31T00:26:42.860Z,0.00
2019-03-31T00:27:42.872Z,0.00
2019-03-31T00:28:42.894Z,0.00
2019-03-31T00:29:42.908Z,0.00
2019-03-31T00:30:42.927Z,0.00
2019-03-31T00:31:42.946Z,0.00
2019-03-31T00:32:42.960Z,0.00
2019-03-31T00:33:42.985Z,0.00
2019-03-31T00:34:42.999Z,0.00
2019-03-31T00:35:43.018Z,0.00
2019-03-31T00:36:43.035Z,0.00
2019-03-31T00:37:43.050Z,0.00
2019-03-31T00:38:43.071Z,0.00
2019-03-31T00:39:43.089Z,0.00
2019-03-31T00:40:43.109Z,0.00
2019-03-31T00:41:43.125Z,0.00
2019-03-31T00:42:43.142Z,0.00
2019-03-31T00:43:43.158Z,0.00
2019-03-31T00:44:43.180Z,0.00
2019-03-31T00:45:43.201Z,0.00
2019-03-31T00:46:43.226Z,0.00
2019-03-31T00:47:43.231Z,0.00
2019-03-31T00:48:43.249Z,0.00
2019-03-31T00:49:43.267Z,0.00
2019-03-31T00:50:43.292Z,0.00
2019-03-31T00:51:43.303Z,0.00
2019-03-31T00:52:43.321Z,0.00
2019-03-31T00:53:43.341Z,0.00
2019-03-31T00:54:43.358Z,0.00
2019-03-31T00:55:43.376Z,0.00
2019-03-31T00:56:43.394Z,0.00
2019-03-31T00:57:43.420Z,0.00
2019-03-31T00:58:43.432Z,0.00
2019-03-31T00:59:43.450Z,0.00
2019-03-31T01:00:43.472Z,0.00
2019-03-31T01:01:43.492Z,0.00
2019-03-31T01:02:43.502Z,0.00
2019-03-31T01:03:43.521Z,0.00
2019-03-31T01:04:43.546Z,0.00
2019-03-31T01:05:43.563Z,0.00
2019-03-31T01:06:43.574Z,0.00
2019-03-31T01:07:43.594Z,0.00
2019-03-31T01:08:43.611Z,0.00
2019-03-31T01:09:43.636Z,0.00
2019-03-31T01:10:43.648Z,0.00
2019-03-31T01:11:43.667Z,0.00
2019-03-31T01:12:43.690Z,0.00
2019-03-31T01:13:43.700Z,0.00
2019-03-31T01:14:43.720Z,0.00
2019-03-31T01:15:43.743Z,0.00
2019-03-31T01:16:43.757Z,0.00
2019-03-31T01:17:43.782Z,0.00
2019-03-31T01:18:43.793Z,0.00
2019-03-31T01:19:43.813Z,0.00
2019-03-31T01:20:43.828Z,0.00
2019-03-31T01:21:43.919Z,0.00
2019-03-31T01:22:43.874Z,0.00
2019-03-31T01:23:43.888Z,0.00
2019-03-31T01:24:43.903Z,0.00
2019-03-31T01:25:43.921Z,0.00
2019-03-31T01:26:43.947Z,0.00
2019-03-31T01:27:43.959Z,0.00
2019-03-31T01:28:43.971Z,0.00
2019-03-31T01:29:43.993Z,0.00
2019-03-31T01:30:44.041Z,0.00
2019-03-31T01:31:50.266Z,0.00
2019-03-31T01:32:44.043Z,0.00
2019-03-31T01:33:44.058Z,0.00
2019-03-31T01:34:44.078Z,0.00
2019-03-31T01:35:44.103Z,0.00
2019-03-31T01:36:44.139Z,0.00
2019-03-31T01:37:44.138Z,0.00
2019-03-31T01:38:44.150Z,0.00
2019-03-31T01:39:44.168Z,0.00
2019-03-31T01:40:44.193Z,0.00
2019-03-31T01:41:44.203Z,0.00
2019-03-31T01:42:44.222Z,0.00
2019-03-31T01:43:44.236Z,0.00
2019-03-31T01:44:44.256Z,0.00
2019-03-31T01:45:44.273Z,0.00
2019-03-31T01:46:44.296Z,0.00
2019-03-31T01:47:44.310Z,0.00
2019-03-31T01:48:44.328Z,0.00
2019-03-31T01:49:44.348Z,0.00
2019-03-31T01:50:44.362Z,0.00
2019-03-31T01:51:44.381Z,0.00
2019-03-31T01:52:44.396Z,0.00
2019-03-31T01:53:44.416Z,0.00
2019-03-31T01:54:44.434Z,0.00
2019-03-31T01:55:44.474Z,0.00
2019-03-31T01:56:44.915Z,0.00
2019-03-31T01:57:44.486Z,0.00
2019-03-31T01:58:44.512Z,0.00
2019-03-31T01:59:44.521Z,0.00
2019-03-31T02:00:44.547Z,0.00
2019-03-31T02:01:44.557Z,0.00
2019-03-31T02:02:44.577Z,0.00
2019-03-31T02:03:44.593Z,0.00
2019-03-31T02:04:44.612Z,0.00
2019-03-31T02:05:44.628Z,0.00
2019-03-31T02:06:44.654Z,0.00
2019-03-31T02:07:44.664Z,0.00
2019-03-31T02:08:44.684Z,0.00
2019-03-31T02:09:44.698Z,0.00
2019-03-31T02:10:44.737Z,0.00
2019-03-31T02:11:44.735Z,0.00
2019-03-31T02:12:44.784Z,0.00
2019-03-31T02:13:44.769Z,0.00
2019-03-31T02:14:44.789Z,0.00
2019-03-31T02:15:44.805Z,0.00
2019-03-31T02:16:44.821Z,0.00
2019-03-31T02:17:44.844Z,0.00
2019-03-31T02:18:44.856Z,0.00
2019-03-31T02:19:44.874Z,0.00
2019-03-31T02:20:44.893Z,0.00
2019-03-31T02:21:44.917Z,0.00
2019-03-31T02:22:44.929Z,0.00
2019-03-31T02:23:44.943Z,0.00
2019-03-31T02:24:44.964Z,0.00
2019-03-31T02:25:44.987Z,0.00
2019-03-31T02:26:44.997Z,0.00
2019-03-31T02:27:45.023Z,0.00
2019-03-31T02:28:45.031Z,0.00
2019-03-31T02:29:45.053Z,0.00
2019-03-31T02:30:45.076Z,0.00
2019-03-31T02:31:45.083Z,0.00
2019-03-31T02:32:45.105Z,0.00
2019-03-31T02:33:45.122Z,0.00
2019-03-31T02:34:45.140Z,0.00
2019-03-31T02:35:45.163Z,0.00
2019-03-31T02:36:45.171Z,0.00
2019-03-31T02:37:45.188Z,0.00
2019-03-31T02:38:45.208Z,0.00
2019-03-31T02:39:45.226Z,0.00
2019-03-31T02:40:45.242Z,0.00
2019-03-31T02:41:45.259Z,0.00
2019-03-31T02:42:45.277Z,0.00
2019-03-31T02:43:45.299Z,0.00
2019-03-31T02:44:45.320Z,0.00
2019-03-31T02:45:45.330Z,0.00
2019-03-31T02:46:45.347Z,0.00
2019-03-31T02:47:45.434Z,0.00
2019-03-31T02:48:45.380Z,0.00
2019-03-31T02:49:45.401Z,0.00
2019-03-31T02:50:45.424Z,0.00
2019-03-31T02:51:45.438Z,0.00
2019-03-31T02:52:45.452Z,0.00
2019-03-31T02:53:45.468Z,0.00
2019-03-31T02:54:45.486Z,0.00
2019-03-31T02:55:45.513Z,0.00
2019-03-31T02:56:45.520Z,0.00
2019-03-31T02:57:45.538Z,0.00
2019-03-31T02:58:45.562Z,0.00
2019-03-31T02:59:45.575Z,0.00
2019-03-31T03:00:45.696Z,0.00
2019-03-31T03:01:45.614Z,0.00
2019-03-31T03:02:45.627Z,0.00
2019-03-31T03:03:45.640Z,0.00
2019-03-31T03:04:45.776Z,0.00
2019-03-31T03:05:45.690Z,0.00
2019-03-31T03:06:45.703Z,0.00
2019-03-31T03:07:45.712Z,0.00
2019-03-31T03:08:45.735Z,0.00
2019-03-31T03:09:45.751Z,0.00
2019-03-31T03:10:45.763Z,0.00
2019-03-31T03:11:45.782Z,0.00
2019-03-31T03:12:45.796Z,0.00
2019-03-31T03:13:45.814Z,0.00
2019-03-31T03:14:45.837Z,0.00
2019-03-31T03:15:45.846Z,0.00
2019-03-31T03:16:45.866Z,0.00
2019-03-31T03:17:45.907Z,0.00
2019-03-31T03:18:45.906Z,0.00
2019-03-31T03:19:45.915Z,0.00
2019-03-31T03:20:45.935Z,0.00
2019-03-31T03:21:45.950Z,0.00
2019-03-31T03:22:45.974Z,0.00
2019-03-31T03:23:45.991Z,0.00
2019-03-31T03:24:46.003Z,0.00
2019-03-31T03:25:55.819Z,0.00
2019-03-31T03:26:46.040Z,0.00
2019-03-31T03:27:46.055Z,0.00
2019-03-31T03:28:46.072Z,0.00
2019-03-31T03:29:46.086Z,0.00
2019-03-31T03:30:46.280Z,0.00
2019-03-31T03:31:46.127Z,0.00
2019-03-31T03:33:12.251Z,0.00
2019-03-31T03:33:46.173Z,0.00
2019-03-31T03:34:46.211Z,0.00
2019-03-31T03:35:46.187Z,0.00
2019-03-31T03:36:46.205Z,0.00
2019-03-31T03:37:46.226Z,0.00
2019-03-31T03:38:46.248Z,0.00
2019-03-31T03:39:46.264Z,0.00
2019-03-31T03:40:46.278Z,0.00
2019-03-31T03:41:46.289Z,0.00
2019-03-31T03:42:46.307Z,0.00
2019-03-31T03:43:54.975Z,0.00
2019-03-31T03:44:46.342Z,0.00
2019-03-31T03:45:46.359Z,0.00
2019-03-31T03:46:46.376Z,0.00
2019-03-31T03:47:46.394Z,0.00
2019-03-31T03:48:46.528Z,0.00
2019-03-31T03:49:46.463Z,0.00
2019-03-31T03:50:46.467Z,0.00
2019-03-31T03:51:46.460Z,0.00
2019-03-31T03:52:46.476Z,0.00
2019-03-31T03:53:46.499Z,0.00
2019-03-31T03:54:46.512Z,0.00
2019-03-31T03:55:46.534Z,0.00
2019-03-31T03:56:46.543Z,0.00
2019-03-31T03:57:46.559Z,0.00
2019-03-31T03:58:46.578Z,0.00
2019-03-31T03:59:46.594Z,0.00
2019-03-31T04:00:46.611Z,0.00
2019-03-31T04:01:46.627Z,0.00
2019-03-31T04:02:46.645Z,0.00
2019-03-31T04:03:46.663Z,0.00
2019-03-31T04:04:46.676Z,0.00
2019-03-31T04:05:46.694Z,0.00
2019-03-31T04:06:46.710Z,0.00
2019-03-31T04:07:46.729Z,0.00
2019-03-31T04:08:46.762Z,0.00
2019-03-31T04:09:46.784Z,0.00
2019-03-31T04:10:46.786Z,0.00
2019-03-31T04:11:46.791Z,0.00
2019-03-31T04:12:46.811Z,0.00
2019-03-31T04:13:46.829Z,0.00
2019-03-31T04:14:46.845Z,0.00
2019-03-31T04:15:46.860Z,0.00
2019-03-31T04:16:46.889Z,0.00
2019-03-31T04:17:46.892Z,0.00
2019-03-31T04:18:46.914Z,0.00
2019-03-31T04:19:46.923Z,0.00
2019-03-31T04:20:46.995Z,0.00
2019-03-31T04:21:46.962Z,0.00
2019-03-31T04:22:46.985Z,0.00
2019-03-31T04:23:46.992Z,0.00
2019-03-31T04:24:47.007Z,0.00
2019-03-31T04:25:47.026Z,0.00
2019-03-31T04:26:47.044Z,0.00
2019-03-31T04:27:47.162Z,0.00
2019-03-31T04:28:47.075Z,0.00
2019-03-31T04:29:47.095Z,0.00
2019-03-31T04:30:47.121Z,0.00
2019-03-31T04:31:47.133Z,0.00
2019-03-31T04:32:47.142Z,0.00
2019-03-31T04:33:52.876Z,0.00
2019-03-31T04:34:47.174Z,0.00
2019-03-31T04:35:47.203Z,0.00
2019-03-31T04:36:47.204Z,0.00
2019-03-31T04:37:47.223Z,0.00
2019-03-31T04:38:47.244Z,0.00
2019-03-31T04:39:47.254Z,0.00
2019-03-31T04:40:47.274Z,0.00
2019-03-31T04:41:47.288Z,0.00
2019-03-31T04:42:47.302Z,0.00
2019-03-31T04:43:47.322Z,0.00
2019-03-31T04:44:47.335Z,0.00
2019-03-31T04:45:47.357Z,0.00
2019-03-31T04:46:47.368Z,0.00
2019-03-31T04:47:47.400Z,0.00
2019-03-31T04:48:47.406Z,0.00
2019-03-31T04:49:47.423Z,0.00
2019-03-31T04:50:47.442Z,0.00
2019-03-31T04:51:47.451Z,0.00
2019-03-31T04:52:47.475Z,0.00
2019-03-31T04:53:47.482Z,0.00
2019-03-31T04:54:47.502Z,0.00
2019-03-31T04:55:47.514Z,0.00
2019-03-31T04:56:47.532Z,0.00
2019-03-31T04:57:47.554Z,0.00
2019-03-31T04:58:47.571Z,0.00
2019-03-31T04:59:47.580Z,0.00
2019-03-31T05:00:47.599Z,0.00
2019-03-31T05:01:47.622Z,0.00
2019-03-31T05:02:47.640Z,0.00
2019-03-31T05:03:47.649Z,0.00
2019-03-31T05:04:47.663Z,0.00
2019-03-31T05:05:47.681Z,0.00
2019-03-31T05:06:47.698Z,0.00
2019-03-31T05:07:47.714Z,0.00
2019-03-31T05:08:47.730Z,0.00
2019-03-31T05:09:47.745Z,0.00
2019-03-31T05:10:47.762Z,0.00
2019-03-31T05:11:47.777Z,0.00
2019-03-31T05:12:47.795Z,0.00
2019-03-31T05:13:47.810Z,0.00
2019-03-31T05:14:47.826Z,0.00
2019-03-31T05:15:47.842Z,0.00
2019-03-31T05:16:47.859Z,0.00
2019-03-31T05:17:47.877Z,0.00
2019-03-31T05:18:47.892Z,0.00
2019-03-31T05:19:47.921Z,0.00
2019-03-31T05:20:47.924Z,0.00
2019-03-31T05:21:47.943Z,0.00
2019-03-31T05:22:47.966Z,0.00
2019-03-31T05:23:47.973Z,0.00
2019-03-31T05:24:47.995Z,0.00
2019-03-31T05:25:48.006Z,0.00
2019-03-31T05:26:48.080Z,5.63
2019-03-31T05:27:48.041Z,5.63
2019-03-31T05:28:48.061Z,5.63
2019-03-31T05:29:48.072Z,5.63
2019-03-31T05:30:48.087Z,5.63
2019-03-31T05:31:48.105Z,5.63
2019-03-31T05:32:48.122Z,5.63
2019-03-31T05:33:48.136Z,5.63
2019-03-31T05:34:48.154Z,5.63
2019-03-31T05:35:48.174Z,5.63
2019-03-31T05:36:48.183Z,11.25
2019-03-31T05:37:51.167Z,11.25
2019-03-31T05:38:48.223Z,11.25
2019-03-31T05:39:48.232Z,11.25
2019-03-31T05:40:48.252Z,11.25
2019-03-31T05:41:48.265Z,11.25
2019-03-31T05:42:48.282Z,11.25
2019-03-31T05:43:48.299Z,11.25
2019-03-31T05:44:48.324Z,11.25
2019-03-31T05:45:48.329Z,11.25
2019-03-31T05:46:48.345Z,11.25
2019-03-31T05:47:48.360Z,11.25
2019-03-31T05:48:48.386Z,11.25
2019-03-31T05:49:48.397Z,11.25
2019-03-31T05:50:48.410Z,11.25
2019-03-31T05:51:48.427Z,16.88
2019-03-31T05:52:48.443Z,16.88
2019-03-31T05:53:48.475Z,16.88
2019-03-31T05:54:48.476Z,16.88
2019-03-31T05:55:48.503Z,16.88
2019-03-31T05:56:48.513Z,16.88
2019-03-31T05:57:48.528Z,16.88
2019-03-31T05:58:48.540Z,16.88
2019-03-31T05:59:48.554Z,16.88
2019-03-31T06:00:48.570Z,16.88
2019-03-31T06:01:48.588Z,22.50
2019-03-31T06:02:48.604Z,22.50
2019-03-31T06:03:48.621Z,22.50
2019-03-31T06:04:48.642Z,22.50
2019-03-31T06:05:48.650Z,22.50
2019-03-31T06:06:48.666Z,28.13
2019-03-31T06:07:48.687Z,28.13
2019-03-31T06:08:48.698Z,22.50
2019-03-31T06:09:48.729Z,22.50
2019-03-31T06:10:48.738Z,28.13
2019-03-31T06:11:48.747Z,28.13
2019-03-31T06:12:48.765Z,28.13
2019-03-31T06:13:48.778Z,28.13
2019-03-31T06:14:48.794Z,33.75
2019-03-31T06:15:48.828Z,33.75
2019-03-31T06:16:48.825Z,33.75
2019-03-31T06:17:48.850Z,33.75
2019-03-31T06:18:48.860Z,33.75
2019-03-31T06:19:48.873Z,39.38
2019-03-31T06:20:48.898Z,39.38
2019-03-31T06:21:48.907Z,39.38
2019-03-31T06:22:48.922Z,45.00
2019-03-31T06:23:48.937Z,45.00
2019-03-31T06:24:48.959Z,45.00
2019-03-31T06:25:48.972Z,50.63
2019-03-31T06:26:48.991Z,50.63
2019-03-31T06:27:49.009Z,50.63
2019-03-31T06:28:49.020Z,56.25
2019-03-31T06:29:49.034Z,61.88
2019-03-31T06:30:49.053Z,61.88
2019-03-31T06:31:49.067Z,56.25
2019-03-31T06:32:49.084Z,56.25
2019-03-31T06:33:49.110Z,61.88
2019-03-31T06:34:49.114Z,61.88
2019-03-31T06:35:49.136Z,61.88
2019-03-31T06:36:49.147Z,61.88
2019-03-31T06:37:49.171Z,67.50
2019-03-31T06:38:49.185Z,73.13
2019-03-31T06:39:49.194Z,73.13
2019-03-31T06:40:49.211Z,73.13
2019-03-31T06:41:49.230Z,73.13
2019-03-31T06:42:49.244Z,73.13
2019-03-31T06:43:49.259Z,73.13
2019-03-31T06:44:49.277Z,78.75
2019-03-31T06:45:49.295Z,78.75
2019-03-31T06:46:49.318Z,78.75
2019-03-31T06:47:49.326Z,78.75
2019-03-31T06:48:49.343Z,84.38
2019-03-31T06:49:49.363Z,84.38
2019-03-31T06:50:49.378Z,90.00
2019-03-31T06:51:49.390Z,95.63
2019-03-31T06:52:49.408Z,95.63
2019-03-31T06:53:49.432Z,95.63
2019-03-31T06:54:49.448Z,95.63
2019-03-31T06:55:49.461Z,95.63
2019-03-31T06:56:49.474Z,95.63
2019-03-31T06:57:49.489Z,95.63
2019-03-31T06:58:49.504Z,95.63
2019-03-31T06:59:49.522Z,90.00
2019-03-31T07:00:49.541Z,84.38
2019-03-31T07:01:49.556Z,84.38
2019-03-31T07:02:49.570Z,84.38
2019-03-31T07:03:49.589Z,84.38
2019-03-31T07:05:00.517Z,90.00
2019-03-31T07:05:49.626Z,90.00
2019-03-31T07:06:49.636Z,95.63
2019-03-31T07:07:49.737Z,101.25
2019-03-31T07:08:49.670Z,101.25
2019-03-31T07:09:49.689Z,101.25
2019-03-31T07:10:49.704Z,95.63
2019-03-31T07:11:49.718Z,101.25
2019-03-31T07:12:49.734Z,101.25
2019-03-31T07:13:49.754Z,101.25
2019-03-31T07:14:49.767Z,101.25
2019-03-31T07:15:49.785Z,106.88
2019-03-31T07:16:49.808Z,101.25
2019-03-31T07:17:49.822Z,106.88
2019-03-31T07:18:49.834Z,106.88
2019-03-31T07:19:49.849Z,112.50
2019-03-31T07:20:49.869Z,106.88
2019-03-31T07:21:49.888Z,106.88
2019-03-31T07:22:49.902Z,123.75
2019-03-31T07:23:49.917Z,123.75
2019-03-31T07:24:49.932Z,129.38
2019-03-31T07:25:49.951Z,129.38
2019-03-31T07:26:49.967Z,135.00
2019-03-31T07:27:49.985Z,146.25
2019-03-31T07:28:50.007Z,140.63
2019-03-31T07:29:50.016Z,157.50
2019-03-31T07:30:50.033Z,157.50
2019-03-31T07:31:50.054Z,168.75
2019-03-31T07:32:50.075Z,168.75
2019-03-31T07:33:50.083Z,163.13
2019-03-31T07:34:50.105Z,157.50
2019-03-31T07:35:50.120Z,151.88
2019-03-31T07:36:50.135Z,146.25
2019-03-31T07:37:50.150Z,146.25
2019-03-31T07:38:50.397Z,140.63
2019-03-31T07:39:50.439Z,140.63
2019-03-31T07:40:50.432Z,140.63
2019-03-31T07:41:50.406Z,140.63
2019-03-31T07:42:51.280Z,146.25
2019-03-31T07:43:50.253Z,140.63
2019-03-31T07:44:50.272Z,140.63
2019-03-31T07:45:50.286Z,135.00
2019-03-31T07:46:50.306Z,129.38
2019-03-31T07:47:50.329Z,112.50
2019-03-31T07:48:50.338Z,112.50
2019-03-31T07:49:50.355Z,101.25
2019-03-31T07:50:50.378Z,95.63
2019-03-31T07:51:50.390Z,101.25
2019-03-31T07:52:50.420Z,112.50
2019-03-31T07:53:50.430Z,123.75
2019-03-31T07:54:50.445Z,140.63
2019-03-31T07:55:50.460Z,163.13
2019-03-31T07:56:50.480Z,168.75
2019-03-31T07:57:50.525Z,174.38
2019-03-31T07:58:50.543Z,163.13
2019-03-31T07:59:50.612Z,163.13
2019-03-31T08:00:50.552Z,174.38
2019-03-31T08:01:50.561Z,151.88
2019-03-31T08:02:50.579Z,140.63
2019-03-31T08:03:50.597Z,118.13
2019-03-31T08:04:50.614Z,118.13
2019-03-31T08:05:50.630Z,112.50
2019-03-31T08:06:50.652Z,95.63
2019-03-31T08:07:50.666Z,101.25
2019-03-31T08:08:53.524Z,95.63
2019-03-31T08:09:50.699Z,84.38
2019-03-31T08:10:50.719Z,95.63
2019-03-31T08:11:50.734Z,101.25
2019-03-31T08:12:50.754Z,112.50
2019-03-31T08:13:50.854Z,123.75
2019-03-31T08:14:50.792Z,129.38
2019-03-31T08:15:50.805Z,129.38
2019-03-31T08:16:50.828Z,135.00
2019-03-31T08:17:50.840Z,146.25
2019-03-31T08:18:50.864Z,140.63
2019-03-31T08:19:50.872Z,135.00
2019-03-31T08:20:50.891Z,118.13
2019-03-31T08:21:50.906Z,112.50
2019-03-31T08:22:50.924Z,101.25
2019-03-31T08:23:50.946Z,95.63
2019-03-31T08:24:50.994Z,90.00
2019-03-31T08:25:50.984Z,95.63
2019-03-31T08:26:51.008Z,101.25
2019-03-31T08:27:51.014Z,95.63
2019-03-31T08:28:51.033Z,95.63
2019-03-31T08:30:00.184Z,84.38
2019-03-31T08:30:51.065Z,78.75
2019-03-31T08:31:51.081Z,84.38
2019-03-31T08:32:51.098Z,90.00
2019-03-31T08:33:51.116Z,95.63
2019-03-31T08:34:51.137Z,106.88
2019-03-31T08:35:51.148Z,112.50
2019-03-31T08:36:51.167Z,112.50
2019-03-31T08:37:51.186Z,112.50
2019-03-31T08:38:51.204Z,101.25
2019-03-31T08:39:51.227Z,95.63
2019-03-31T08:40:51.238Z,90.00
2019-03-31T08:41:51.254Z,84.38
2019-03-31T08:42:51.272Z,73.13
2019-03-31T08:43:51.296Z,67.50
2019-03-31T08:44:51.306Z,61.88
2019-03-31T08:45:51.324Z,61.88
2019-03-31T08:46:51.341Z,61.88
2019-03-31T08:47:51.363Z,61.88
2019-03-31T08:48:51.373Z,61.88
2019-03-31T08:49:51.392Z,67.50
2019-03-31T08:50:51.414Z,84.38
2019-03-31T08:51:51.424Z,90.00
2019-03-31T08:52:51.443Z,95.63
2019-03-31T08:53:51.459Z,90.00
2019-03-31T08:54:51.478Z,95.63
2019-03-31T08:55:51.495Z,112.50
2019-03-31T08:56:51.512Z,146.25
2019-03-31T08:57:51.529Z,180.00
2019-03-31T08:58:51.555Z,196.88
2019-03-31T08:59:51.560Z,208.13
2019-03-31T09:00:51.578Z,219.38
2019-03-31T09:01:51.598Z,230.63
2019-03-31T09:02:51.615Z,230.63
2019-03-31T09:03:51.633Z,236.25
2019-03-31T09:04:51.648Z,241.88
2019-03-31T09:06:01.649Z,247.50
2019-03-31T09:06:51.692Z,247.50
2019-03-31T09:07:51.709Z,241.88
2019-03-31T09:08:51.717Z,208.13
2019-03-31T09:09:51.741Z,174.38
2019-03-31T09:10:51.753Z,157.50
2019-03-31T09:11:51.773Z,140.63
2019-03-31T09:12:51.791Z,123.75
2019-03-31T09:13:51.810Z,112.50
2019-03-31T09:14:51.825Z,112.50
2019-03-31T09:15:51.843Z,106.88
2019-03-31T09:16:51.859Z,90.00
2019-03-31T09:17:54.182Z,90.00
2019-03-31T09:18:51.897Z,84.38
2019-03-31T09:19:51.911Z,95.63
2019-03-31T09:20:51.932Z,95.63
2019-03-31T09:21:51.948Z,101.25
2019-03-31T09:22:51.966Z,95.63
2019-03-31T09:23:51.990Z,106.88
2019-03-31T09:24:52.005Z,112.50
2019-03-31T09:25:52.022Z,135.00
2019-03-31T09:26:52.037Z,157.50
2019-03-31T09:27:52.055Z,174.38
2019-03-31T09:28:52.071Z,202.50
2019-03-31T09:29:52.090Z,219.38
2019-03-31T09:30:52.202Z,225.00
2019-03-31T09:31:52.124Z,219.38
2019-03-31T09:32:52.142Z,202.50
2019-03-31T09:33:52.162Z,168.75
2019-03-31T09:34:52.179Z,135.00
2019-03-31T09:35:52.202Z,123.75
2019-03-31T09:36:52.214Z,112.50
2019-03-31T09:37:52.237Z,95.63
2019-03-31T09:38:52.252Z,101.25
2019-03-31T09:39:52.268Z,106.88
2019-03-31T09:40:52.286Z,112.50
2019-03-31T09:41:52.303Z,118.13
2019-03-31T09:42:52.320Z,118.13
2019-03-31T09:43:52.339Z,118.13
2019-03-31T09:44:52.357Z,112.50
2019-03-31T09:45:52.374Z,112.50
2019-03-31T09:46:52.390Z,118.13
2019-03-31T09:47:52.410Z,123.75
2019-03-31T09:48:52.428Z,129.38
2019-03-31T09:49:52.453Z,135.00
2019-03-31T09:50:52.461Z,140.63
2019-03-31T09:51:52.484Z,151.88
2019-03-31T09:52:52.507Z,151.88
2019-03-31T09:53:52.518Z,146.25
2019-03-31T09:54:52.533Z,146.25
2019-03-31T09:55:52.551Z,151.88
2019-03-31T09:56:52.567Z,157.50
2019-03-31T09:57:52.596Z,151.88
2019-03-31T09:58:52.612Z,157.50
2019-03-31T09:59:52.621Z,163.13
2019-03-31T10:00:52.642Z,174.38
2019-03-31T10:01:52.664Z,174.38
2019-03-31T10:02:52.676Z,163.13
2019-03-31T10:03:52.695Z,151.88
2019-03-31T10:04:52.717Z,146.25
2019-03-31T10:05:52.730Z,140.63
2019-03-31T10:06:52.745Z,151.88
2019-03-31T10:07:52.764Z,157.50
2019-03-31T10:08:52.780Z,157.50
2019-03-31T10:09:52.800Z,168.75
2019-03-31T10:10:52.818Z,168.75
2019-03-31T10:11:52.834Z,146.25
2019-03-31T10:12:52.854Z,129.38
2019-03-31T10:13:52.878Z,118.13
2019-03-31T10:14:54.392Z,118.13
2019-03-31T10:15:52.907Z,112.50
2019-03-31T10:16:52.923Z,118.13
2019-03-31T10:17:52.947Z,135.00
2019-03-31T10:18:52.962Z,129.38
2019-03-31T10:19:52.985Z,118.13
2019-03-31T10:20:52.996Z,118.13
2019-03-31T10:21:53.016Z,118.13
2019-03-31T10:22:53.035Z,118.13
2019-03-31T10:23:53.049Z,118.13
2019-03-31T10:24:53.072Z,129.38
2019-03-31T10:25:53.089Z,135.00
2019-03-31T10:26:53.113Z,129.38
2019-03-31T10:27:53.125Z,123.75
2019-03-31T10:28:53.140Z,123.75
2019-03-31T10:29:53.166Z,123.75
2019-03-31T10:30:53.174Z,129.38
2019-03-31T10:31:53.198Z,135.00
2019-03-31T10:32:53.209Z,146.25
2019-03-31T10:33:53.294Z,151.88
2019-03-31T10:34:53.245Z,151.88
2019-03-31T10:35:53.265Z,157.50
2019-03-31T10:36:53.281Z,163.13
2019-03-31T10:37:53.303Z,163.13
2019-03-31T10:38:53.321Z,168.75
2019-03-31T10:39:53.340Z,168.75
2019-03-31T10:40:53.357Z,168.75
2019-03-31T10:41:53.377Z,163.13
2019-03-31T10:42:53.390Z,163.13
2019-03-31T10:43:53.405Z,157.50
2019-03-31T10:44:53.439Z,157.50
2019-03-31T10:45:53.442Z,151.88
2019-03-31T10:46:53.460Z,151.88
2019-03-31T10:47:53.477Z,146.25
2019-03-31T10:48:53.504Z,146.25
2019-03-31T10:49:53.514Z,146.25
2019-03-31T10:50:53.532Z,146.25
2019-03-31T10:51:53.555Z,146.25
2019-03-31T10:52:53.571Z,140.63
2019-03-31T10:53:53.583Z,135.00
2019-03-31T10:54:53.614Z,129.38
2019-03-31T10:55:53.623Z,129.38
2019-03-31T10:56:53.642Z,129.38
2019-03-31T10:57:53.657Z,135.00
2019-03-31T10:58:53.676Z,135.00
2019-03-31T10:59:53.696Z,129.38
2019-03-31T11:00:53.709Z,123.75
2019-03-31T11:01:53.732Z,118.13
2019-03-31T11:02:53.744Z,118.13
2019-03-31T11:03:53.761Z,112.50
2019-03-31T11:04:53.782Z,106.88
2019-03-31T11:05:53.806Z,106.88
2019-03-31T11:06:59.140Z,106.88
2019-03-31T11:07:53.835Z,106.88
2019-03-31T11:08:53.851Z,101.25
2019-03-31T11:09:53.874Z,101.25
2019-03-31T11:10:53.896Z,101.25
2019-03-31T11:11:53.905Z,101.25
2019-03-31T11:12:53.929Z,95.63
2019-03-31T11:13:53.944Z,95.63
2019-03-31T11:14:53.959Z,95.63
2019-03-31T11:15:57.267Z,95.63
2019-03-31T11:16:53.994Z,84.38
2019-03-31T11:17:54.012Z,78.75
2019-03-31T11:18:54.032Z,73.13
2019-03-31T11:19:54.048Z,67.50
2019-03-31T11:20:54.067Z,67.50
2019-03-31T11:21:54.094Z,67.50
2019-03-31T11:22:54.104Z,73.13
2019-03-31T11:23:54.119Z,73.13
2019-03-31T11:24:54.142Z,78.75
2019-03-31T11:25:54.161Z,84.38
2019-03-31T11:26:54.178Z,90.00
2019-03-31T11:27:54.192Z,95.63
2019-03-31T11:28:54.207Z,95.63
2019-03-31T11:29:54.233Z,95.63
2019-03-31T11:30:54.245Z,95.63
2019-03-31T11:31:54.264Z,90.00
2019-03-31T11:32:54.277Z,90.00
2019-03-31T11:33:54.297Z,95.63
2019-03-31T11:34:54.316Z,95.63
2019-03-31T11:35:54.330Z,95.63
2019-03-31T11:36:54.351Z,101.25
2019-03-31T11:37:54.391Z,101.25
2019-03-31T11:38:54.384Z,106.88
2019-03-31T11:39:54.413Z,106.88
2019-03-31T11:40:54.421Z,112.50
2019-03-31T11:41:54.438Z,118.13
2019-03-31T11:42:54.455Z,123.75
2019-03-31T11:43:54.470Z,129.38
2019-03-31T11:44:54.488Z,140.63
2019-03-31T11:45:54.511Z,151.88
2019-03-31T11:46:54.525Z,163.13
2019-03-31T11:47:54.542Z,168.75
2019-03-31T11:48:54.561Z,174.38
2019-03-31T11:49:54.579Z,174.38
2019-03-31T11:50:54.594Z,185.63
2019-03-31T11:51:54.613Z,202.50
2019-03-31T11:52:54.630Z,219.38
2019-03-31T11:53:54.648Z,225.00
2019-03-31T11:54:54.673Z,225.00
2019-03-31T11:55:54.685Z,225.00
2019-03-31T11:56:54.700Z,219.38
2019-03-31T11:57:54.721Z,219.38
2019-03-31T11:58:54.736Z,219.38
2019-03-31T11:59:54.759Z,219.38
2019-03-31T12:00:54.772Z,208.13
2019-03-31T12:01:54.793Z,196.88
2019-03-31T12:02:54.810Z,185.63
2019-03-31T12:03:54.825Z,180.00
2019-03-31T12:04:54.844Z,174.38
2019-03-31T12:05:54.867Z,174.38
2019-03-31T12:06:54.883Z,174.38
2019-03-31T12:07:54.898Z,163.13
2019-03-31T12:08:54.919Z,151.88
2019-03-31T12:09:54.941Z,146.25
2019-03-31T12:10:54.959Z,146.25
2019-03-31T12:11:54.974Z,157.50
2019-03-31T12:12:54.991Z,168.75
2019-03-31T12:13:55.008Z,174.38
2019-03-31T12:15:00.727Z,185.63
2019-03-31T12:15:55.056Z,196.88
2019-03-31T12:16:55.074Z,202.50
2019-03-31T12:17:55.081Z,202.50
2019-03-31T12:18:55.102Z,202.50
2019-03-31T12:19:55.120Z,191.25
2019-03-31T12:20:55.136Z,196.88
2019-03-31T12:21:55.164Z,213.75
2019-03-31T12:22:55.177Z,219.38
2019-03-31T12:23:55.192Z,230.63
2019-03-31T12:24:55.213Z,241.88
2019-03-31T12:25:55.230Z,258.75
2019-03-31T12:26:55.257Z,309.38
2019-03-31T12:27:55.266Z,303.75
2019-03-31T12:28:55.360Z,286.88
2019-03-31T12:29:55.307Z,275.63
2019-03-31T12:30:55.320Z,270.00
2019-03-31T12:31:55.338Z,270.00
2019-03-31T12:32:55.360Z,281.25
2019-03-31T12:33:55.376Z,270.00
2019-03-31T12:34:55.396Z,258.75
2019-03-31T12:35:55.419Z,241.88
2019-03-31T12:36:55.442Z,241.88
2019-03-31T12:37:55.454Z,225.00
2019-03-31T12:38:55.475Z,213.75
2019-03-31T12:39:55.489Z,213.75
2019-03-31T12:40:55.509Z,219.38
2019-03-31T12:41:55.534Z,225.00
2019-03-31T12:42:55.552Z,230.63
2019-03-31T12:43:55.568Z,230.63
2019-03-31T12:44:55.585Z,225.00
2019-03-31T12:45:55.613Z,219.38
2019-03-31T12:46:56.362Z,219.38
2019-03-31T12:47:55.647Z,219.38
2019-03-31T12:48:55.663Z,213.75
2019-03-31T12:49:55.684Z,213.75
2019-03-31T12:50:55.708Z,208.13
2019-03-31T12:51:55.723Z,196.88
2019-03-31T12:52:55.746Z,196.88
2019-03-31T12:53:55.764Z,191.25
2019-03-31T12:54:55.777Z,180.00